createdAt,value
2023-02-15T00:01:49.042Z,17.13
2023-02-15T00:04:18.057Z,19.40
2023-02-15T00:06:44.510Z,18.40
2023-02-15T00:09:12.016Z,17.10
2023-02-15T00:11:43.345Z,16.90
2023-02-15T00:14:21.471Z,18.67
2023-02-15T00:16:49.599Z,16.40
2023-02-15T00:19:18.379Z,17.77
2023-02-15T00:21:45.252Z,18.50
2023-02-15T00:24:13.498Z,17.10
2023-02-15T00:26:41.763Z,17.00
2023-02-15T00:29:10.095Z,16.23
2023-02-15T00:31:36.645Z,16.23
2023-02-15T00:34:15.116Z,16.90
2023-02-15T00:36:41.521Z,17.00
2023-02-15T00:39:07.904Z,16.87
2023-02-15T00:41:34.690Z,16.50
2023-02-15T00:44:01.233Z,15.33
2023-02-15T00:46:27.692Z,17.03
2023-02-15T00:48:55.391Z,16.40
2023-02-15T00:51:21.766Z,16.07
2023-02-15T00:53:48.652Z,14.90
2023-02-15T00:56:15.104Z,15.87
2023-02-15T00:58:41.798Z,17.13
2023-02-15T01:01:17.680Z,15.03
2023-02-15T01:03:44.607Z,14.63
2023-02-15T01:06:11.804Z,14.90
2023-02-15T01:08:38.788Z,15.53
2023-02-15T01:11:08.560Z,14.70
2023-02-15T01:13:35.524Z,16.20
2023-02-15T01:16:02.882Z,15.27
2023-02-15T01:18:30.810Z,16.60
2023-02-15T01:20:58.381Z,15.77
2023-02-15T01:23:24.822Z,15.07
2023-02-15T01:25:51.159Z,15.70
2023-02-15T01:28:17.525Z,15.13
2023-02-15T01:30:44.020Z,14.40
2023-02-15T01:33:18.320Z,14.80
2023-02-15T01:35:46.802Z,13.80
2023-02-15T01:38:14.389Z,12.63
2023-02-15T01:40:40.860Z,14.57
2023-02-15T01:43:12.014Z,14.43
2023-02-15T01:45:39.160Z,14.70
2023-02-15T01:48:22.009Z,15.20
2023-02-15T01:50:54.133Z,15.80
2023-02-15T01:53:27.228Z,15.17
2023-02-15T01:56:07.609Z,13.47
2023-02-15T01:58:36.168Z,13.70
2023-02-15T02:01:04.780Z,16.00
2023-02-15T02:03:51.140Z,16.03
2023-02-15T02:06:18.309Z,14.80
2023-02-15T02:08:45.154Z,14.93
2023-02-15T02:11:15.278Z,14.67
2023-02-15T02:13:44.152Z,14.73
2023-02-15T02:16:25.202Z,14.90
2023-02-15T02:19:08.018Z,13.77
2023-02-15T02:21:37.629Z,14.83
2023-02-15T02:24:24.458Z,14.10
2023-02-15T02:27:12.573Z,16.27
2023-02-15T02:30:00.614Z,16.80
2023-02-15T02:32:56.612Z,14.57
2023-02-15T02:35:41.215Z,14.80
2023-02-15T02:38:37.228Z,14.43
2023-02-15T02:41:11.981Z,14.03
2023-02-15T02:43:52.341Z,14.63
2023-02-15T02:46:29.110Z,16.10
2023-02-15T02:48:55.933Z,13.80
2023-02-15T02:51:23.110Z,13.20
2023-02-15T02:53:57.165Z,14.00
2023-02-15T02:56:54.259Z,15.47
2023-02-15T02:59:35.437Z,14.40
2023-02-15T03:02:13.621Z,14.00
2023-02-15T03:04:44.675Z,14.40
2023-02-15T03:07:15.524Z,15.10
2023-02-15T03:09:45.741Z,13.83
2023-02-15T03:12:18.214Z,14.47
2023-02-15T03:14:48.849Z,14.20
2023-02-15T03:17:19.793Z,14.27
2023-02-15T03:19:48.678Z,14.50
2023-02-15T03:22:20.998Z,14.40
2023-02-15T03:24:58.169Z,16.70
2023-02-15T03:27:31.988Z,13.17
2023-02-15T03:30:02.692Z,14.50
2023-02-15T03:32:31.914Z,14.37
2023-02-15T03:34:58.420Z,13.70
2023-02-15T03:37:34.640Z,14.10
2023-02-15T03:40:27.129Z,13.10
2023-02-15T03:43:02.790Z,13.30
2023-02-15T03:45:33.070Z,13.07
2023-02-15T03:48:01.864Z,14.57
2023-02-15T03:50:50.529Z,12.53
2023-02-15T03:53:22.010Z,13.13
2023-02-15T03:55:50.236Z,11.93
2023-02-15T03:58:35.046Z,12.10
2023-02-15T04:01:30.256Z,13.43
2023-02-15T04:04:02.993Z,13.40
2023-02-15T04:06:29.645Z,13.20
2023-02-15T04:09:14.496Z,14.30
2023-02-15T04:11:40.820Z,13.60
2023-02-15T04:14:25.827Z,14.83
2023-02-15T04:16:52.288Z,14.70
2023-02-15T04:19:37.639Z,14.10
2023-02-15T04:22:22.533Z,14.43
2023-02-15T04:25:07.488Z,13.87
2023-02-15T04:27:34.208Z,13.97
2023-02-15T04:30:00.645Z,14.30
2023-02-15T04:32:27.666Z,14.10
2023-02-15T04:34:54.400Z,15.00
2023-02-15T04:37:20.774Z,13.03
2023-02-15T04:39:47.310Z,13.53
2023-02-15T04:42:13.690Z,13.63
2023-02-15T04:44:40.019Z,13.13
2023-02-15T04:47:06.365Z,14.37
2023-02-15T04:49:32.750Z,14.30
2023-02-15T04:51:59.101Z,13.57
2023-02-15T04:54:25.420Z,13.27
2023-02-15T04:56:51.825Z,13.50
2023-02-15T04:59:18.211Z,14.17
2023-02-15T05:01:44.601Z,14.33
2023-02-15T05:04:11.263Z,14.20
2023-02-15T05:06:37.626Z,14.90
2023-02-15T05:09:04.142Z,15.63
2023-02-15T05:11:30.480Z,14.43
2023-02-15T05:13:56.851Z,14.30
2023-02-15T05:16:23.251Z,13.50
2023-02-15T05:18:49.749Z,16.13
2023-02-15T05:21:17.390Z,15.00
2023-02-15T05:23:43.713Z,16.27
2023-02-15T05:26:31.946Z,14.97
2023-02-15T05:28:58.330Z,13.77
2023-02-15T05:31:24.879Z,14.47
2023-02-15T05:33:51.650Z,13.30
2023-02-15T05:36:18.051Z,12.70
2023-02-15T05:38:44.409Z,12.87
2023-02-15T05:41:12.478Z,12.17
2023-02-15T05:43:39.454Z,14.30
2023-02-15T05:46:07.691Z,14.73
2023-02-15T05:48:34.659Z,13.77
2023-02-15T05:51:10.071Z,14.47
2023-02-15T05:53:38.363Z,15.90
2023-02-15T05:56:06.111Z,14.97
2023-02-15T05:58:35.817Z,13.83
2023-02-15T06:01:28.428Z,13.90
2023-02-15T06:03:56.551Z,15.07
2023-02-15T06:06:23.321Z,14.10
2023-02-15T06:08:49.628Z,14.70
2023-02-15T06:11:16.222Z,14.80
2023-02-15T06:13:42.577Z,13.50
2023-02-15T06:16:08.958Z,14.33
2023-02-15T06:18:36.109Z,13.60
2023-02-15T06:21:02.449Z,15.90
2023-02-15T06:23:29.427Z,13.20
2023-02-15T06:25:55.742Z,14.33
2023-02-15T06:28:22.120Z,14.97
2023-02-15T06:30:48.724Z,15.00
2023-02-15T06:33:15.074Z,15.70
2023-02-15T06:35:41.456Z,15.47
2023-02-15T06:38:07.767Z,15.50
2023-02-15T06:40:34.385Z,17.17
2023-02-15T06:43:00.712Z,13.60
2023-02-15T06:45:27.045Z,18.23
2023-02-15T06:47:53.380Z,28.00
2023-02-15T06:50:19.695Z,16.90
2023-02-15T06:52:46.085Z,17.87
2023-02-15T06:55:12.596Z,16.30
2023-02-15T06:57:38.924Z,15.77
2023-02-15T07:00:06.871Z,16.40
2023-02-15T07:02:33.368Z,17.27
2023-02-15T07:04:59.722Z,17.70
2023-02-15T07:07:26.316Z,15.57
2023-02-15T07:09:52.644Z,14.80
2023-02-15T07:12:37.544Z,16.90
2023-02-15T07:15:05.242Z,15.80
2023-02-15T07:17:35.724Z,15.23
2023-02-15T07:20:12.436Z,14.30
2023-02-15T07:22:39.185Z,15.60
2023-02-15T07:25:07.855Z,14.50
2023-02-15T07:27:34.567Z,15.70
2023-02-15T07:30:01.646Z,14.27
2023-02-15T07:32:32.564Z,14.70
2023-02-15T07:34:59.550Z,15.40
2023-02-15T07:37:26.954Z,15.10
2023-02-15T07:39:53.298Z,16.00
2023-02-15T07:42:20.750Z,16.53
2023-02-15T07:44:47.498Z,14.77
2023-02-15T07:47:13.884Z,17.60
2023-02-15T07:49:40.212Z,16.77
2023-02-15T07:52:06.590Z,15.40
2023-02-15T07:54:32.897Z,14.80
2023-02-15T07:56:59.239Z,15.67
2023-02-15T07:59:25.611Z,15.53
2023-02-15T08:01:53.814Z,14.97
2023-02-15T08:04:20.200Z,16.23
2023-02-15T08:06:46.652Z,14.50
2023-02-15T08:09:12.989Z,14.70
2023-02-15T08:11:41.612Z,15.43
2023-02-15T08:14:15.211Z,15.00
2023-02-15T08:16:45.509Z,16.00
2023-02-15T08:19:11.814Z,17.50
2023-02-15T08:21:40.908Z,15.80
2023-02-15T08:24:08.726Z,15.70
2023-02-15T08:26:35.665Z,17.73
2023-02-15T08:29:03.273Z,16.80
2023-02-15T08:31:30.328Z,16.73
2023-02-15T08:33:57.842Z,15.57
2023-02-15T08:36:28.444Z,16.10
2023-02-15T08:38:55.037Z,14.80
2023-02-15T08:41:35.640Z,15.80
2023-02-15T08:44:04.853Z,19.53
2023-02-15T08:46:34.413Z,17.20
2023-02-15T08:49:01.385Z,16.67
2023-02-15T08:51:30.708Z,15.50
2023-02-15T08:54:00.228Z,16.97
2023-02-15T08:56:29.079Z,15.87
2023-02-15T08:58:56.781Z,16.77
2023-02-15T09:01:26.036Z,15.80
2023-02-15T09:03:57.013Z,16.83
2023-02-15T09:06:24.255Z,15.47
2023-02-15T09:08:51.483Z,17.10
2023-02-15T09:11:26.950Z,16.53
2023-02-15T09:13:59.513Z,15.97
2023-02-15T09:16:28.956Z,17.37
2023-02-15T09:18:58.389Z,17.73
2023-02-15T09:21:26.128Z,15.83
2023-02-15T09:23:57.408Z,17.60
2023-02-15T09:26:25.201Z,17.60
2023-02-15T09:28:57.013Z,17.20
2023-02-15T09:31:26.113Z,17.33
2023-02-15T09:33:53.146Z,20.00
2023-02-15T09:36:25.354Z,17.47
2023-02-15T09:39:03.180Z,17.57
2023-02-15T09:41:37.907Z,17.10
2023-02-15T09:44:18.001Z,19.20
2023-02-15T09:47:13.417Z,17.67
2023-02-15T09:49:58.477Z,15.70
2023-02-15T09:52:50.898Z,17.67
2023-02-15T09:55:38.108Z,17.90
2023-02-15T09:58:28.968Z,19.13
2023-02-15T10:01:05.665Z,17.70
2023-02-15T10:03:38.508Z,17.10
2023-02-15T10:06:12.709Z,16.97
2023-02-15T10:09:00.306Z,18.50
2023-02-15T10:11:59.008Z,18.00
2023-02-15T10:14:38.619Z,19.43
2023-02-15T10:17:19.906Z,20.00
2023-02-15T10:20:01.021Z,18.47
2023-02-15T10:23:04.117Z,16.07
2023-02-15T10:25:42.414Z,18.37
2023-02-15T10:28:36.696Z,19.07
2023-02-15T10:31:23.206Z,18.43
2023-02-15T10:33:59.876Z,18.87
2023-02-15T10:36:56.186Z,19.43
2023-02-15T10:39:44.273Z,18.87
2023-02-15T10:42:24.858Z,19.83
2023-02-15T10:45:01.014Z,18.60
2023-02-15T10:47:33.527Z,18.80
2023-02-15T10:50:11.726Z,18.97
2023-02-15T10:52:59.385Z,19.50
2023-02-15T10:55:39.310Z,18.77
2023-02-15T10:58:13.052Z,19.10
2023-02-15T11:00:48.339Z,18.80
2023-02-15T11:03:31.926Z,19.07
2023-02-15T11:06:15.312Z,19.07
2023-02-15T11:08:48.783Z,20.40
2023-02-15T11:11:25.500Z,18.60
2023-02-15T11:13:57.561Z,20.07
2023-02-15T11:16:29.653Z,20.10
2023-02-15T11:19:00.836Z,18.07
2023-02-15T11:21:37.682Z,19.00
2023-02-15T11:24:16.957Z,19.77
2023-02-15T11:26:48.114Z,20.17
2023-02-15T11:29:34.341Z,19.30
2023-02-15T11:32:23.204Z,18.87
2023-02-15T11:34:59.164Z,18.80
2023-02-15T11:37:34.599Z,17.77
2023-02-15T11:40:04.211Z,18.17
2023-02-15T11:42:32.359Z,17.83
2023-02-15T11:45:17.544Z,18.57
2023-02-15T11:47:44.061Z,18.40
2023-02-15T11:50:22.900Z,18.77
2023-02-15T11:52:56.711Z,17.97
2023-02-15T11:55:24.937Z,19.63
2023-02-15T11:58:14.888Z,18.60
2023-02-15T12:00:47.601Z,19.60
2023-02-15T12:03:20.936Z,17.60
2023-02-15T12:05:54.342Z,19.53
2023-02-15T12:08:22.319Z,20.80
2023-02-15T12:11:13.188Z,20.93
2023-02-15T12:13:57.255Z,18.50
2023-02-15T12:16:23.909Z,20.50
2023-02-15T12:18:57.761Z,18.93
2023-02-15T12:21:34.155Z,18.67
2023-02-15T12:24:13.885Z,19.27
2023-02-15T12:26:41.559Z,18.10
2023-02-15T12:29:17.251Z,15.93
2023-02-15T12:31:50.833Z,17.87
2023-02-15T12:34:26.067Z,17.67
2023-02-15T12:37:01.191Z,18.87
2023-02-15T12:39:28.712Z,19.70
2023-02-15T12:41:55.059Z,19.13
2023-02-15T12:44:26.768Z,19.03
2023-02-15T12:47:16.478Z,17.80
2023-02-15T12:49:47.690Z,18.40
2023-02-15T12:52:20.992Z,18.10
2023-02-15T12:54:48.273Z,17.63
2023-02-15T12:57:34.212Z,16.27
2023-02-15T13:00:07.668Z,16.80
2023-02-15T13:02:42.119Z,16.60
2023-02-15T13:05:20.690Z,15.70
2023-02-15T13:07:56.811Z,16.00
2023-02-15T13:10:34.576Z,16.67
2023-02-15T13:13:03.742Z,16.43
2023-02-15T13:15:36.252Z,15.70
2023-02-15T13:18:05.261Z,15.83
2023-02-15T13:20:35.413Z,15.97
2023-02-15T13:23:13.506Z,15.63
2023-02-15T13:25:51.026Z,15.30
2023-02-15T13:28:20.605Z,14.37
2023-02-15T13:30:48.763Z,15.70
2023-02-15T13:33:27.217Z,14.70
2023-02-15T13:36:15.555Z,15.20
2023-02-15T13:38:53.804Z,15.73
2023-02-15T13:41:35.599Z,14.67
2023-02-15T13:44:08.958Z,14.30
2023-02-15T13:46:54.039Z,16.00
2023-02-15T13:50:01.567Z,16.10
2023-02-15T13:52:31.647Z,15.70
2023-02-15T13:55:29.998Z,17.00
2023-02-15T13:58:07.960Z,17.40
2023-02-15T14:00:50.280Z,16.47
2023-02-15T14:03:42.843Z,17.33
2023-02-15T14:06:29.121Z,16.47
2023-02-15T14:09:17.513Z,18.00
2023-02-15T14:12:09.206Z,16.03
2023-02-15T14:14:35.486Z,16.77
2023-02-15T14:17:18.718Z,17.37
2023-02-15T14:20:00.602Z,16.07
2023-02-15T14:22:34.587Z,15.83
2023-02-15T14:25:13.408Z,15.50
2023-02-15T14:28:06.691Z,16.60
2023-02-15T14:30:37.283Z,17.10
2023-02-15T14:33:33.147Z,15.90
2023-02-15T14:36:02.107Z,16.27
2023-02-15T14:38:39.501Z,17.10
2023-02-15T14:41:11.112Z,16.63
2023-02-15T14:44:26.541Z,16.60
2023-02-15T14:47:16.186Z,17.63
2023-02-15T14:49:42.537Z,16.80
2023-02-15T14:52:11.515Z,17.93
2023-02-15T14:54:37.765Z,18.27
2023-02-15T14:57:04.027Z,18.00
2023-02-15T14:59:36.059Z,20.13
2023-02-15T15:02:08.636Z,19.00
2023-02-15T15:04:39.309Z,18.00
2023-02-15T15:07:19.982Z,17.80
2023-02-15T15:09:57.970Z,18.70
2023-02-15T15:12:27.209Z,19.57
2023-02-15T15:14:54.985Z,19.10
2023-02-15T15:17:33.684Z,18.87
2023-02-15T15:20:01.838Z,18.70
2023-02-15T15:22:30.748Z,20.47
2023-02-15T15:24:59.416Z,19.90
2023-02-15T15:27:41.281Z,18.83
2023-02-15T15:30:13.704Z,20.20
2023-02-15T15:32:52.693Z,19.80
2023-02-15T15:35:45.799Z,19.20
2023-02-15T15:38:36.735Z,21.03
2023-02-15T15:41:43.575Z,21.00
2023-02-15T15:44:34.488Z,18.83
2023-02-15T15:47:13.785Z,18.77
2023-02-15T15:49:41.229Z,18.93
2023-02-15T15:52:19.091Z,21.37
2023-02-15T15:54:48.676Z,18.77
2023-02-15T15:57:39.209Z,19.43
2023-02-15T16:00:27.841Z,19.50
2023-02-15T16:02:56.341Z,19.70
2023-02-15T16:05:23.154Z,21.57
2023-02-15T16:07:50.448Z,20.93
2023-02-15T16:10:28.701Z,21.67
2023-02-15T16:12:56.162Z,19.50
2023-02-15T16:15:42.730Z,19.97
2023-02-15T16:18:16.412Z,20.63
2023-02-15T16:20:53.847Z,20.33
2023-02-15T16:23:35.462Z,19.37
2023-02-15T16:26:13.693Z,20.60
2023-02-15T16:28:40.282Z,20.70
2023-02-15T16:31:16.227Z,19.70
2023-02-15T16:33:45.726Z,21.50
2023-02-15T16:36:21.409Z,21.83
2023-02-15T16:38:47.687Z,20.13
2023-02-15T16:41:19.324Z,22.00
2023-02-15T16:43:47.936Z,20.83
2023-02-15T16:46:22.931Z,21.77
2023-02-15T16:48:52.657Z,21.37
2023-02-15T16:51:23.058Z,23.27
2023-02-15T16:53:50.475Z,23.70
2023-02-15T16:56:24.329Z,22.50
2023-02-15T16:58:53.602Z,21.90
2023-02-15T17:01:24.826Z,22.80
2023-02-15T17:04:10.660Z,21.07
2023-02-15T17:06:37.090Z,21.80
2023-02-15T17:09:06.594Z,22.30
2023-02-15T17:11:44.337Z,20.63
2023-02-15T17:14:15.094Z,20.70
2023-02-15T17:17:02.550Z,23.13
2023-02-15T17:19:40.918Z,23.27
2023-02-15T17:22:07.740Z,22.77
2023-02-15T17:24:41.691Z,23.40
2023-02-15T17:27:15.482Z,21.37
2023-02-15T17:29:46.710Z,21.23
2023-02-15T17:32:25.531Z,20.63
2023-02-15T17:35:00.315Z,22.00
2023-02-15T17:37:30.177Z,20.70
2023-02-15T17:39:58.281Z,21.57
2023-02-15T17:42:24.954Z,21.73
2023-02-15T17:44:51.338Z,21.43
2023-02-15T17:47:20.368Z,19.70
2023-02-15T17:49:49.876Z,21.33
2023-02-15T17:52:18.189Z,20.97
2023-02-15T17:55:03.954Z,21.80
2023-02-15T17:57:31.104Z,20.53
2023-02-15T18:00:16.175Z,20.20
2023-02-15T18:03:02.115Z,22.53
2023-02-15T18:05:47.046Z,18.60
2023-02-15T18:08:34.908Z,19.17
2023-02-15T18:11:20.363Z,20.63
2023-02-15T18:13:46.928Z,22.33
2023-02-15T18:16:16.360Z,22.13
2023-02-15T18:18:45.014Z,21.13
2023-02-15T18:21:12.336Z,20.33
2023-02-15T18:23:39.561Z,21.30
2023-02-15T18:26:06.532Z,22.60
2023-02-15T18:28:32.981Z,21.20
2023-02-15T18:31:00.195Z,22.97
2023-02-15T18:33:39.013Z,22.30
2023-02-15T18:36:07.954Z,23.50
2023-02-15T18:38:34.526Z,21.60
2023-02-15T18:41:03.520Z,23.50
2023-02-15T18:43:30.153Z,23.47
2023-02-15T18:45:56.615Z,24.90
2023-02-15T18:48:22.986Z,22.67
2023-02-15T18:50:50.874Z,22.77
2023-02-15T18:53:20.801Z,22.27
2023-02-15T18:55:47.663Z,20.40
2023-02-15T18:58:20.339Z,22.00
2023-02-15T19:00:48.243Z,21.50
2023-02-15T19:03:16.165Z,21.33
2023-02-15T19:05:45.100Z,21.90
2023-02-15T19:08:21.837Z,22.37
2023-02-15T19:10:48.414Z,21.30
2023-02-15T19:13:15.149Z,22.93
2023-02-15T19:15:41.530Z,22.43
2023-02-15T19:18:08.183Z,22.20
2023-02-15T19:20:41.273Z,21.23
2023-02-15T19:23:17.265Z,21.40
2023-02-15T19:25:43.733Z,21.20
2023-02-15T19:28:19.537Z,22.43
2023-02-15T19:30:45.933Z,23.27
2023-02-15T19:33:17.249Z,21.33
2023-02-15T19:35:45.606Z,20.53
2023-02-15T19:38:18.795Z,20.60
2023-02-15T19:40:45.748Z,20.87
2023-02-15T19:43:18.451Z,19.60
2023-02-15T19:45:45.651Z,20.43
2023-02-15T19:48:14.791Z,20.87
2023-02-15T19:50:43.479Z,22.43
2023-02-15T19:53:27.913Z,21.67
2023-02-15T19:55:54.627Z,22.73
2023-02-15T19:58:21.721Z,23.20
2023-02-15T20:00:50.422Z,21.50
2023-02-15T20:03:17.354Z,22.50
2023-02-15T20:05:44.336Z,20.70
2023-02-15T20:08:18.294Z,21.70
2023-02-15T20:10:45.791Z,20.90
2023-02-15T20:13:16.939Z,19.67
2023-02-15T20:15:44.209Z,19.87
2023-02-15T20:18:11.300Z,22.50
2023-02-15T20:20:47.873Z,20.97
2023-02-15T20:23:29.051Z,22.97
2023-02-15T20:25:59.442Z,21.63
2023-02-15T20:28:29.121Z,21.77
2023-02-15T20:30:55.596Z,22.87
2023-02-15T20:33:22.417Z,22.33
2023-02-15T20:35:50.157Z,21.60
2023-02-15T20:38:26.350Z,22.13
2023-02-15T20:41:12.737Z,23.17
2023-02-15T20:43:39.187Z,21.50
2023-02-15T20:46:06.594Z,22.83
2023-02-15T20:48:33.662Z,21.50
2023-02-15T20:51:00.260Z,21.60
2023-02-15T20:53:28.201Z,21.60
2023-02-15T20:55:55.410Z,21.57
2023-02-15T20:58:30.742Z,21.87
2023-02-15T21:00:58.750Z,21.63
2023-02-15T21:03:30.129Z,23.27
2023-02-15T21:05:57.532Z,22.63
2023-02-15T21:08:24.120Z,21.77
2023-02-15T21:10:52.510Z,21.13
2023-02-15T21:13:31.044Z,20.90
2023-02-15T21:15:58.255Z,20.90
2023-02-15T21:18:30.078Z,23.73
2023-02-15T21:20:59.502Z,21.10
2023-02-15T21:23:29.424Z,21.73
2023-02-15T21:25:57.163Z,22.10
2023-02-15T21:28:26.525Z,22.63
2023-02-15T21:30:54.228Z,19.93
2023-02-15T21:33:21.178Z,21.90
2023-02-15T21:35:50.472Z,21.13
2023-02-15T21:38:20.667Z,20.90
2023-02-15T21:40:47.509Z,20.37
2023-02-15T21:43:34.334Z,21.23
2023-02-15T21:46:44.689Z,21.23
2023-02-15T21:49:11.251Z,20.77
2023-02-15T21:51:56.420Z,20.83
2023-02-15T21:54:22.785Z,20.87
2023-02-15T21:56:51.260Z,19.73
2023-02-15T21:59:18.354Z,20.07
2023-02-15T22:01:50.792Z,22.87
2023-02-15T22:04:27.792Z,22.00
2023-02-15T22:06:54.960Z,20.87
2023-02-15T22:09:25.034Z,20.63
2023-02-15T22:11:52.296Z,20.77
2023-02-15T22:14:41.804Z,20.37
2023-02-15T22:17:18.686Z,21.93
2023-02-15T22:19:47.048Z,21.77
2023-02-15T22:22:13.628Z,21.70
2023-02-15T22:24:40.489Z,20.27
2023-02-15T22:27:13.459Z,20.57
2023-02-15T22:29:39.817Z,19.90
2023-02-15T22:32:10.745Z,21.53
2023-02-15T22:34:37.186Z,20.63
2023-02-15T22:37:03.577Z,21.57
2023-02-15T22:39:29.906Z,21.40
2023-02-15T22:41:56.873Z,21.50
2023-02-15T22:44:32.146Z,22.40
2023-02-15T22:47:00.482Z,23.20
2023-02-15T22:49:27.188Z,22.47
2023-02-15T22:51:53.532Z,21.67
2023-02-15T22:54:20.070Z,21.20
2023-02-15T22:56:48.797Z,23.60
2023-02-15T22:59:28.746Z,24.00
2023-02-15T23:01:56.784Z,21.13
2023-02-15T23:04:26.071Z,22.33
2023-02-15T23:06:58.049Z,24.03
2023-02-15T23:09:24.377Z,23.40
2023-02-15T23:11:51.867Z,24.40
2023-02-15T23:14:35.690Z,23.80
2023-02-15T23:17:02.422Z,22.60
2023-02-15T23:19:28.960Z,24.27
2023-02-15T23:21:55.550Z,21.63
2023-02-15T23:24:26.073Z,22.33
2023-02-15T23:26:52.521Z,25.40
2023-02-15T23:29:24.859Z,23.10
2023-02-15T23:31:53.128Z,21.87
2023-02-15T23:34:37.877Z,21.07
2023-02-15T23:37:04.224Z,21.30
2023-02-15T23:39:49.414Z,19.10
2023-02-15T23:42:20.049Z,20.57
2023-02-15T23:44:47.781Z,20.10
2023-02-15T23:47:45.751Z,21.43
2023-02-15T23:50:19.947Z,19.70
2023-02-15T23:52:46.385Z,20.53
2023-02-15T23:55:14.063Z,21.77
2023-02-15T23:57:41.347Z,19.83
